Terminal

Terminal

Towards east Towards west


Weather at Vagar airport (metar):

EKVG 241520Z AUTO 32023G33KT 9999NDV -SHRA SCT019/// BKN022/// 05/02 Q1008

METAR / TAF from DMI at Vagar                      Weather from Vagar airport

Atlantic Airways

Atlantic Airways official webpage

News

26. January 2015
Note about laser beams

Weather

Information

Webcamera

Terminalur